Skandia, Michigan
Current Conditions -  °F | °C
As of 4:57 AM on Sunday 21 Dec 2014 (Local Time) from KSAW Reporting Station
Overcast Overcast  
Wind Chill: 17°   Ceiling: 2600
Heat Index: 26°   Visibility: 7mi
Dew Point: 24°   Wind: 8mph
Humidity: 92%   Direction: 190°S
Pressure: 30.12"   Gusts: NA
Location:  46.38°N, 87.24°W
Report Text: KSAW 210957Z AUTO 19007KT 7SM OVC026 M03/M05 A3012 RMK AO2 T10351047
Loading
Personal Weather Stations






























Interactive Weather Map New forecast layout! Learn more

10-Day Weather Forecast

Advertisements
Track Severe Weather on mobile